Hacoda, Alabama
Current Conditions -  °F | °C
As of 12:58 PM on Tuesday 21 Oct 2014 (Local Time) from K0J4 Reporting Station
Clear Clear  
Wind Chill: 79°   Ceiling: Unl
Heat Index: 79°   Visibility: 10mi
Dew Point: 50°   Wind: 5mph
Humidity: 36%   Direction: NA
Pressure: 30.02"   Gusts: NA
Location:  31.0519°N, 86.3486°W
Report Text: K0J4 211758Z AUTO VRB04KT 10SM CLR 26/10 A3002 RMK AO2 SLP162 T02610100 10261 20100 58014
Loading
Personal Weather Stations






























Interactive Weather Map
Tropical Storm Tracking
New forecast layout! Learn more

10-Day Weather Forecast

Advertisements
Track Severe Weather on mobile